Terminal Aerodrome Forecast
Issued by NWS

Home | Current Version | Previous Version | Text Only | Print | Product List | Glossary On
Versions: 1 2 3 4 5 6 7 8 9 10 11 12 13 14 15 16 17 18 19 20
182
FTUS43 KABR 302340
TAFMBG
TAF
KMBG 302340Z 3100/3124 30025G35KT 2SM +TSRA OVC020CB
     FM310100 34012KT P6SM VCTS BKN100CB
     FM310300 31011KT P6SM SCT150
     FM310900 28012KT P6SM SCT250
     FM311500 26018KT P6SM SCT040=

USA.gov is the U.S. government's official web portal to all federal, state and local government web resources and services.